createdAt,value
2023-10-26T00:00:09.711Z,92.55
2023-10-26T00:02:36.402Z,92.83
2023-10-26T00:05:03.076Z,92.50
2023-10-26T00:07:29.546Z,91.92
2023-10-26T00:09:56.098Z,91.68
2023-10-26T00:12:22.668Z,91.45
2023-10-26T00:14:49.268Z,91.68
2023-10-26T00:17:15.778Z,91.76
2023-10-26T00:19:42.214Z,92.39
2023-10-26T00:22:08.654Z,92.43
2023-10-26T00:24:35.282Z,92.13
2023-10-26T00:27:01.808Z,91.91
2023-10-26T00:29:28.285Z,91.79
2023-10-26T00:31:55.389Z,91.62
2023-10-26T00:34:21.864Z,90.68
2023-10-26T00:36:48.659Z,91.69
2023-10-26T00:39:15.173Z,90.54
2023-10-26T00:41:42.608Z,90.26
2023-10-26T00:44:09.154Z,90.79
2023-10-26T00:46:36.883Z,90.23
2023-10-26T00:49:03.931Z,90.38
2023-10-26T00:51:30.897Z,89.86
2023-10-26T00:53:57.606Z,89.87
2023-10-26T00:56:26.737Z,89.19
2023-10-26T00:58:54.341Z,89.24
2023-10-26T01:01:20.928Z,89.86
2023-10-26T01:03:48.226Z,88.97
2023-10-26T01:06:14.801Z,88.93
2023-10-26T01:08:41.477Z,90.16
2023-10-26T01:11:08.073Z,89.70
2023-10-26T01:13:34.778Z,89.84
2023-10-26T01:16:03.352Z,89.54
2023-10-26T01:18:32.079Z,89.17
2023-10-26T01:20:58.913Z,89.27
2023-10-26T01:23:25.482Z,89.31
2023-10-26T01:25:57.493Z,88.70
2023-10-26T01:28:24.712Z,89.37
2023-10-26T01:30:51.445Z,88.87
2023-10-26T01:33:18.002Z,89.30
2023-10-26T01:35:47.029Z,88.75
2023-10-26T01:38:14.590Z,88.81
2023-10-26T01:40:41.203Z,88.12
2023-10-26T01:43:07.822Z,89.75
2023-10-26T01:45:34.326Z,89.02
2023-10-26T01:48:01.368Z,88.76
2023-10-26T01:50:28.036Z,89.96
2023-10-26T01:52:54.886Z,88.88
2023-10-26T01:55:21.325Z,89.09
2023-10-26T01:57:47.894Z,89.50
2023-10-26T02:00:17.299Z,88.79
2023-10-26T02:02:43.883Z,88.21
2023-10-26T02:05:10.434Z,88.44
2023-10-26T02:07:36.977Z,89.07
2023-10-26T02:10:03.809Z,89.21
2023-10-26T02:12:30.346Z,89.12
2023-10-26T02:14:56.819Z,89.22
2023-10-26T02:17:23.584Z,89.23
2023-10-26T02:19:50.132Z,88.81
2023-10-26T02:22:16.678Z,87.96
2023-10-26T02:24:43.451Z,88.89
2023-10-26T02:27:10.245Z,88.54
2023-10-26T02:29:36.719Z,88.14
2023-10-26T02:32:03.593Z,88.86
2023-10-26T02:34:30.165Z,88.61
2023-10-26T02:36:58.540Z,88.36
2023-10-26T02:39:26.059Z,88.57
2023-10-26T02:41:52.843Z,89.32
2023-10-26T02:44:19.433Z,88.87
2023-10-26T02:46:45.953Z,89.80
2023-10-26T02:49:12.517Z,89.39
2023-10-26T02:51:38.995Z,89.87
2023-10-26T02:54:05.611Z,89.53
2023-10-26T02:56:32.165Z,89.51
2023-10-26T02:58:58.673Z,89.92
2023-10-26T03:01:25.105Z,88.94
2023-10-26T03:03:52.333Z,89.23
2023-10-26T03:06:18.910Z,89.90
2023-10-26T03:08:45.452Z,89.78
2023-10-26T03:11:11.921Z,90.01
2023-10-26T03:13:38.645Z,89.99
2023-10-26T03:16:07.143Z,89.79
2023-10-26T03:18:33.656Z,89.61
2023-10-26T03:21:00.237Z,89.40
2023-10-26T03:23:26.678Z,89.81
2023-10-26T03:25:53.193Z,90.23
2023-10-26T03:28:19.682Z,89.73
2023-10-26T03:30:46.115Z,89.49
2023-10-26T03:33:12.666Z,89.54
2023-10-26T03:35:39.174Z,89.50
2023-10-26T03:38:05.699Z,89.93
2023-10-26T03:40:32.176Z,89.35
2023-10-26T03:42:58.675Z,91.31
2023-10-26T03:45:28.160Z,90.15
2023-10-26T03:47:54.826Z,88.88
2023-10-26T03:50:21.448Z,88.59
2023-10-26T03:52:47.886Z,89.26
2023-10-26T03:55:14.412Z,89.65
2023-10-26T03:57:40.833Z,89.27
2023-10-26T04:00:09.359Z,90.22
2023-10-26T04:02:35.852Z,89.09
2023-10-26T04:05:02.331Z,88.94
2023-10-26T04:07:28.819Z,88.64
2023-10-26T04:09:55.405Z,89.40
2023-10-26T04:12:21.938Z,89.50
2023-10-26T04:14:48.402Z,89.47
2023-10-26T04:17:16.795Z,88.49
2023-10-26T04:19:43.242Z,89.03
2023-10-26T04:22:09.721Z,89.33
2023-10-26T04:24:36.205Z,88.71
2023-10-26T04:27:02.865Z,89.24
2023-10-26T04:29:29.366Z,89.68
2023-10-26T04:31:55.913Z,89.50
2023-10-26T04:34:22.553Z,89.63
2023-10-26T04:36:49.155Z,90.86
2023-10-26T04:39:16.834Z,90.95
2023-10-26T04:41:44.348Z,90.75
2023-10-26T04:44:11.089Z,90.16
2023-10-26T04:46:37.655Z,89.23
2023-10-26T04:49:04.900Z,91.68
2023-10-26T04:51:33.351Z,91.97
2023-10-26T04:53:59.903Z,92.23
2023-10-26T04:56:26.381Z,91.97
2023-10-26T04:58:52.860Z,91.53
2023-10-26T05:01:19.353Z,91.56
2023-10-26T05:03:46.096Z,90.94
2023-10-26T05:06:12.956Z,91.29
2023-10-26T05:08:39.475Z,91.42
2023-10-26T05:11:06.109Z,91.76
2023-10-26T05:13:32.833Z,91.52
2023-10-26T05:15:59.605Z,90.92
2023-10-26T05:18:26.179Z,90.62
2023-10-26T05:20:52.657Z,90.76
2023-10-26T05:23:19.707Z,91.14
2023-10-26T05:25:46.188Z,91.78
2023-10-26T05:28:12.663Z,91.51
2023-10-26T05:30:39.257Z,90.36
2023-10-26T05:33:06.005Z,89.66
2023-10-26T05:35:32.639Z,89.96
2023-10-26T05:37:59.180Z,90.08
2023-10-26T05:40:25.865Z,90.83
2023-10-26T05:42:52.373Z,90.99
2023-10-26T05:45:19.014Z,91.25
2023-10-26T05:47:45.544Z,90.06
2023-10-26T05:50:12.012Z,89.94
2023-10-26T05:52:38.475Z,89.46
2023-10-26T05:55:05.419Z,88.92
2023-10-26T05:57:32.074Z,89.87
2023-10-26T05:59:59.673Z,89.87
2023-10-26T06:02:26.226Z,90.67
2023-10-26T06:04:52.833Z,90.25
2023-10-26T06:07:19.349Z,90.33
2023-10-26T06:09:45.830Z,89.91
2023-10-26T06:12:13.362Z,89.91
2023-10-26T06:14:39.964Z,89.33
2023-10-26T06:17:06.467Z,89.56
2023-10-26T06:19:34.889Z,89.61
2023-10-26T06:22:01.407Z,89.89
2023-10-26T06:24:28.221Z,89.75
2023-10-26T06:26:54.839Z,88.94
2023-10-26T06:29:21.317Z,89.50
2023-10-26T06:31:47.878Z,89.09
2023-10-26T06:34:14.448Z,88.47
2023-10-26T06:36:40.966Z,89.57
2023-10-26T06:39:07.471Z,88.12
2023-10-26T06:41:34.377Z,89.05
2023-10-26T06:44:00.810Z,88.96
2023-10-26T06:46:27.350Z,89.07
2023-10-26T06:48:55.361Z,88.45
2023-10-26T06:51:22.021Z,87.75
2023-10-26T06:53:48.514Z,88.39
2023-10-26T06:56:15.101Z,87.23
2023-10-26T06:58:43.517Z,87.03
2023-10-26T07:01:20.720Z,86.28
2023-10-26T07:03:52.201Z,85.46
2023-10-26T07:06:19.826Z,87.17
2023-10-26T07:08:46.334Z,86.61
2023-10-26T07:11:12.785Z,86.00
2023-10-26T07:13:39.715Z,85.23
2023-10-26T07:16:06.662Z,85.39
2023-10-26T07:18:34.886Z,85.08
2023-10-26T07:21:08.742Z,84.58
2023-10-26T07:23:35.933Z,84.58
2023-10-26T07:26:03.481Z,84.11
2023-10-26T07:28:30.246Z,84.20
2023-10-26T07:30:56.767Z,84.80
2023-10-26T07:33:23.347Z,85.33
2023-10-26T07:35:56.432Z,84.43
2023-10-26T07:38:34.667Z,83.93
2023-10-26T07:41:06.128Z,83.41
2023-10-26T07:43:33.365Z,83.24
2023-10-26T07:45:59.916Z,82.70
2023-10-26T07:48:26.545Z,82.39
2023-10-26T07:50:53.115Z,82.64
2023-10-26T07:53:19.691Z,82.87
2023-10-26T07:55:46.182Z,82.40
2023-10-26T07:58:12.788Z,82.38
2023-10-26T08:00:39.548Z,82.11
2023-10-26T08:03:06.179Z,82.82
2023-10-26T08:05:32.779Z,81.91
2023-10-26T08:07:59.366Z,81.09
2023-10-26T08:10:27.331Z,80.72
2023-10-26T08:12:54.423Z,81.29
2023-10-26T08:16:11.180Z,79.69
2023-10-26T08:18:13.134Z,79.48
2023-10-26T08:20:40.178Z,79.29
2023-10-26T08:23:06.714Z,78.15
2023-10-26T08:25:37.465Z,78.77
2023-10-26T08:28:04.251Z,77.85
2023-10-26T08:30:30.905Z,78.17
2023-10-26T08:32:57.638Z,77.33
2023-10-26T08:35:24.392Z,75.92
2023-10-26T08:37:51.151Z,75.64
2023-10-26T08:40:18.138Z,75.51
2023-10-26T08:42:44.788Z,75.97
2023-10-26T08:45:20.179Z,75.61
2023-10-26T08:47:52.611Z,75.60
2023-10-26T08:50:24.801Z,76.51
2023-10-26T08:52:54.534Z,77.74
2023-10-26T08:55:21.502Z,76.80
2023-10-26T08:57:53.190Z,77.52
2023-10-26T09:00:20.732Z,76.99
2023-10-26T09:02:49.667Z,76.97
2023-10-26T09:05:16.610Z,76.15
2023-10-26T09:07:43.302Z,76.50
2023-10-26T09:10:10.389Z,75.08
2023-10-26T09:12:36.920Z,73.84
2023-10-26T09:15:07.347Z,73.80
2023-10-26T09:17:35.043Z,71.36
2023-10-26T09:20:18.395Z,72.43
2023-10-26T09:22:45.109Z,72.74
2023-10-26T09:25:13.288Z,71.66
2023-10-26T09:27:40.848Z,70.02
2023-10-26T09:30:33.961Z,70.23
2023-10-26T09:33:01.175Z,71.04
2023-10-26T09:35:34.933Z,73.01
2023-10-26T09:38:01.868Z,72.76
2023-10-26T09:40:28.819Z,71.92
2023-10-26T09:42:57.258Z,73.75
2023-10-26T09:45:24.220Z,72.82
2023-10-26T09:47:51.034Z,73.35
2023-10-26T09:50:18.300Z,72.47
2023-10-26T09:52:45.763Z,72.78
2023-10-26T09:55:13.094Z,72.53
2023-10-26T09:58:09.992Z,72.09
2023-10-26T10:00:36.645Z,71.63
2023-10-26T10:03:10.335Z,70.50
2023-10-26T10:05:38.745Z,71.00
2023-10-26T10:08:05.937Z,70.07
2023-10-26T10:10:33.411Z,70.67
2023-10-26T10:13:00.542Z,70.88
2023-10-26T10:15:41.948Z,71.40
2023-10-26T10:18:10.107Z,71.75
2023-10-26T10:20:40.616Z,72.88
2023-10-26T10:23:07.713Z,72.66
2023-10-26T10:25:52.344Z,72.74
2023-10-26T10:28:19.938Z,71.71
2023-10-26T10:30:56.760Z,72.21
2023-10-26T10:33:26.491Z,73.23
2023-10-26T10:36:04.079Z,71.83
2023-10-26T10:38:32.020Z,70.93
2023-10-26T10:41:02.532Z,70.63
2023-10-26T10:43:35.896Z,69.74
2023-10-26T10:46:21.412Z,70.39
2023-10-26T10:49:09.808Z,68.34
2023-10-26T10:51:45.754Z,68.64
2023-10-26T10:54:27.021Z,67.42
2023-10-26T10:57:05.778Z,67.70
2023-10-26T10:59:32.358Z,68.99
2023-10-26T11:02:13.238Z,68.28
2023-10-26T11:05:05.576Z,67.90
2023-10-26T11:07:39.934Z,67.87
2023-10-26T11:10:07.119Z,67.86
2023-10-26T11:12:33.755Z,68.66
2023-10-26T11:15:01.347Z,67.18
2023-10-26T11:17:30.378Z,67.73
2023-10-26T11:19:57.268Z,68.17
2023-10-26T11:22:24.312Z,67.92
2023-10-26T11:24:51.140Z,68.41
2023-10-26T11:27:19.924Z,69.72
2023-10-26T11:30:06.330Z,69.66
2023-10-26T11:32:33.766Z,69.55
2023-10-26T11:35:03.949Z,70.73
2023-10-26T11:37:31.200Z,71.23
2023-10-26T11:39:57.771Z,73.38
2023-10-26T11:42:46.381Z,74.76
2023-10-26T11:45:14.577Z,73.78
2023-10-26T11:48:10.604Z,73.34
2023-10-26T11:50:37.256Z,73.10
2023-10-26T11:53:05.161Z,72.66
2023-10-26T11:55:33.329Z,74.00
2023-10-26T11:58:01.579Z,75.38
2023-10-26T12:00:29.647Z,74.56
2023-10-26T12:03:00.768Z,75.31
2023-10-26T12:05:28.462Z,76.42
2023-10-26T12:07:55.689Z,74.94
2023-10-26T12:10:24.313Z,75.36
2023-10-26T12:12:51.087Z,76.82
2023-10-26T12:15:18.710Z,75.88
2023-10-26T12:17:46.299Z,78.17
2023-10-26T12:20:14.653Z,76.88
2023-10-26T12:22:41.491Z,76.73
2023-10-26T12:25:09.292Z,75.96
2023-10-26T12:28:19.764Z,77.38
2023-10-26T12:30:22.828Z,77.55
2023-10-26T12:32:49.390Z,77.22
2023-10-26T12:35:16.002Z,76.71
2023-10-26T12:37:42.572Z,76.80
2023-10-26T12:40:09.577Z,77.27
2023-10-26T12:42:36.990Z,76.06
2023-10-26T12:45:04.067Z,77.46
2023-10-26T12:47:30.616Z,75.64
2023-10-26T12:49:57.198Z,74.57
2023-10-26T12:52:23.712Z,73.76
2023-10-26T12:54:50.298Z,73.65
2023-10-26T12:57:16.906Z,73.38
2023-10-26T12:59:43.390Z,74.25
2023-10-26T13:02:09.992Z,74.48
2023-10-26T13:04:37.233Z,74.63
2023-10-26T13:07:04.154Z,73.16
2023-10-26T13:09:30.906Z,73.54
2023-10-26T13:11:57.558Z,75.07
2023-10-26T13:14:24.047Z,74.91
2023-10-26T13:16:57.769Z,73.52
2023-10-26T13:19:26.051Z,74.50
2023-10-26T13:21:52.543Z,73.74
2023-10-26T13:24:19.028Z,74.73
2023-10-26T13:26:45.567Z,74.60
2023-10-26T13:29:12.254Z,74.97
2023-10-26T13:31:38.828Z,74.28
2023-10-26T13:34:05.441Z,74.62
2023-10-26T13:36:32.041Z,75.80
2023-10-26T13:38:58.560Z,76.49
2023-10-26T13:41:25.091Z,77.00
2023-10-26T13:43:51.920Z,77.42
2023-10-26T13:46:18.517Z,78.43
2023-10-26T13:48:45.075Z,80.03
2023-10-26T13:54:04.891Z,79.84
2023-10-26T13:56:31.352Z,80.79
2023-10-26T13:58:57.798Z,80.74
2023-10-26T14:01:26.082Z,81.14
2023-10-26T14:03:52.722Z,82.65
2023-10-26T14:06:19.356Z,83.95
2023-10-26T14:08:45.896Z,82.59
2023-10-26T14:11:17.114Z,84.18
2023-10-26T14:13:44.055Z,83.26
2023-10-26T14:16:11.866Z,82.92
2023-10-26T14:18:38.371Z,83.45
2023-10-26T14:21:05.013Z,84.30
2023-10-26T14:23:31.518Z,83.18
2023-10-26T14:25:58.065Z,83.40
2023-10-26T14:28:24.712Z,84.23
2023-10-26T14:30:51.214Z,85.32
2023-10-26T14:33:17.694Z,83.80
2023-10-26T14:35:44.180Z,82.93
2023-10-26T14:38:10.677Z,83.50
2023-10-26T14:40:38.265Z,83.50
2023-10-26T14:43:04.802Z,83.24
2023-10-26T14:45:34.639Z,84.12
2023-10-26T14:48:01.547Z,84.51
2023-10-26T14:50:28.135Z,85.60
2023-10-26T14:52:54.643Z,84.06
2023-10-26T14:55:21.459Z,85.53
2023-10-26T14:57:48.066Z,86.64
2023-10-26T15:00:14.765Z,86.62
2023-10-26T15:02:41.369Z,86.57
2023-10-26T15:05:08.326Z,86.77
2023-10-26T15:07:34.756Z,85.74
2023-10-26T15:10:20.923Z,87.40
2023-10-26T15:12:47.776Z,86.45
2023-10-26T15:15:14.395Z,86.08
2023-10-26T15:17:40.910Z,86.94
2023-10-26T15:20:08.036Z,86.66
2023-10-26T15:22:34.533Z,87.69
2023-10-26T15:25:00.982Z,86.71
2023-10-26T15:27:27.627Z,89.02
2023-10-26T15:29:54.115Z,89.49
2023-10-26T15:32:20.870Z,89.94
2023-10-26T15:34:47.935Z,91.39
2023-10-26T15:37:15.205Z,91.39
2023-10-26T15:39:45.360Z,91.58
2023-10-26T15:42:18.492Z,92.89
2023-10-26T15:44:49.601Z,93.72
2023-10-26T15:47:16.743Z,92.98
2023-10-26T15:49:45.136Z,93.29
2023-10-26T15:52:11.784Z,93.09
2023-10-26T15:54:38.327Z,94.40
2023-10-26T15:57:05.074Z,93.38
2023-10-26T15:59:31.646Z,95.82
2023-10-26T16:01:58.105Z,96.23
2023-10-26T16:04:24.698Z,96.28
2023-10-26T16:06:51.284Z,97.22
2023-10-26T16:09:18.067Z,95.51
2023-10-26T16:11:44.670Z,95.59
2023-10-26T16:14:11.339Z,95.98
2023-10-26T16:16:37.971Z,95.40
2023-10-26T16:19:05.496Z,94.84
2023-10-26T16:21:32.328Z,94.97
2023-10-26T16:23:58.912Z,95.61
2023-10-26T16:26:25.428Z,96.00
2023-10-26T16:28:51.920Z,95.50
2023-10-26T16:31:18.509Z,96.26
2023-10-26T16:33:45.938Z,96.43
2023-10-26T16:36:12.908Z,96.28
2023-10-26T16:38:39.371Z,95.82
2023-10-26T16:41:05.874Z,95.71
2023-10-26T16:43:32.364Z,96.26
2023-10-26T16:45:59.928Z,96.30
2023-10-26T16:48:27.556Z,95.35
2023-10-26T16:50:56.045Z,96.82
2023-10-26T16:53:31.143Z,96.46
2023-10-26T16:56:04.261Z,97.70
2023-10-26T16:58:32.933Z,97.88
2023-10-26T17:01:00.224Z,97.24
2023-10-26T17:03:27.813Z,96.95
2023-10-26T17:05:54.615Z,96.97
2023-10-26T17:08:22.194Z,96.75
2023-10-26T17:10:51.810Z,96.26
2023-10-26T17:13:18.407Z,96.68
2023-10-26T17:15:45.900Z,97.16
2023-10-26T17:18:12.738Z,97.01
2023-10-26T17:20:39.325Z,97.14
2023-10-26T17:23:05.856Z,96.48
2023-10-26T17:25:35.878Z,98.18
2023-10-26T17:28:03.290Z,98.88
2023-10-26T17:30:30.548Z,98.10
2023-10-26T17:32:57.514Z,97.35
2023-10-26T17:35:24.287Z,97.43
2023-10-26T17:37:50.973Z,97.20
2023-10-26T17:40:17.758Z,98.54
2023-10-26T17:42:44.401Z,98.63
2023-10-26T17:45:11.028Z,99.42
2023-10-26T17:47:37.587Z,98.77
2023-10-26T17:50:04.383Z,98.72
2023-10-26T17:52:31.055Z,98.86
2023-10-26T17:54:58.077Z,98.88
2023-10-26T17:57:25.248Z,99.11
2023-10-26T17:59:51.776Z,98.06
2023-10-26T18:02:18.221Z,98.35
2023-10-26T18:04:44.654Z,98.01
2023-10-26T18:07:15.676Z,98.55
2023-10-26T18:09:42.705Z,99.73
2023-10-26T18:12:11.694Z,100.00
2023-10-26T18:14:38.857Z,99.70
2023-10-26T18:17:05.371Z,100.00
2023-10-26T18:19:31.876Z,100.00
2023-10-26T18:21:58.347Z,99.94
2023-10-26T18:24:24.933Z,100.00
2023-10-26T18:26:51.406Z,100.00
2023-10-26T18:29:17.967Z,100.00
2023-10-26T18:31:44.532Z,100.00
2023-10-26T18:34:11.187Z,100.00
2023-10-26T18:36:40.030Z,99.43
2023-10-26T18:39:06.862Z,100.00
2023-10-26T18:41:34.015Z,99.79
2023-10-26T18:44:01.315Z,100.00
2023-10-26T18:46:28.010Z,98.82
2023-10-26T18:48:54.865Z,98.61
2023-10-26T18:51:24.204Z,99.21
2023-10-26T18:53:50.992Z,99.03
2023-10-26T18:56:21.279Z,98.76
2023-10-26T18:58:47.940Z,100.00
2023-10-26T19:01:14.584Z,100.00
2023-10-26T19:03:53.737Z,99.11
2023-10-26T19:06:27.597Z,99.33
2023-10-26T19:08:54.210Z,99.44
2023-10-26T19:11:20.732Z,99.38
2023-10-26T19:13:48.703Z,98.38
2023-10-26T19:16:15.777Z,98.94
2023-10-26T19:18:42.636Z,98.49
2023-10-26T19:21:09.512Z,98.20
2023-10-26T19:23:36.025Z,97.54
2023-10-26T19:26:03.004Z,97.83
2023-10-26T19:28:29.618Z,98.40
2023-10-26T19:30:56.335Z,98.99
2023-10-26T19:33:25.791Z,98.38
2023-10-26T19:35:53.328Z,99.61
2023-10-26T19:38:19.864Z,99.95
2023-10-26T19:40:46.385Z,99.36
2023-10-26T19:43:13.503Z,99.99
2023-10-26T19:45:43.197Z,99.43
2023-10-26T19:48:09.964Z,99.66
2023-10-26T19:50:36.407Z,99.11
2023-10-26T19:53:02.979Z,100.00
2023-10-26T19:55:29.640Z,100.00
2023-10-26T19:57:56.142Z,100.00
2023-10-26T20:00:22.982Z,100.00
2023-10-26T20:02:49.594Z,100.00
2023-10-26T20:05:16.238Z,99.52
2023-10-26T20:07:42.805Z,99.40
2023-10-26T20:10:09.514Z,100.00
2023-10-26T20:12:39.389Z,99.97
2023-10-26T20:15:06.820Z,98.87
2023-10-26T20:17:33.957Z,100.00
2023-10-26T20:20:01.083Z,99.46
2023-10-26T20:22:27.747Z,99.89
2023-10-26T20:24:54.272Z,99.65
2023-10-26T20:27:20.875Z,99.96
2023-10-26T20:29:47.510Z,100.00
2023-10-26T20:32:14.608Z,98.81
2023-10-26T20:34:41.305Z,100.00
2023-10-26T20:37:08.141Z,99.22
2023-10-26T20:39:34.721Z,99.77
2023-10-26T20:42:01.358Z,100.00
2023-10-26T20:44:27.917Z,100.00
2023-10-26T20:46:54.506Z,99.68
2023-10-26T20:49:21.097Z,99.69
2023-10-26T20:51:47.665Z,100.00
2023-10-26T20:54:14.210Z,99.13
2023-10-26T20:56:40.709Z,100.00
2023-10-26T20:59:07.618Z,100.00
2023-10-26T21:01:34.300Z,100.00
2023-10-26T21:04:00.882Z,99.77
2023-10-26T21:06:27.520Z,99.54
2023-10-26T21:08:54.450Z,98.96
2023-10-26T21:11:21.496Z,98.91
2023-10-26T21:13:48.261Z,98.46
2023-10-26T21:16:15.454Z,98.74
2023-10-26T21:18:42.921Z,98.38
2023-10-26T21:21:11.380Z,98.17
2023-10-26T21:23:38.957Z,99.66
2023-10-26T21:26:09.722Z,99.67
2023-10-26T21:28:38.758Z,99.70
2023-10-26T21:31:06.424Z,100.00
2023-10-26T21:33:34.144Z,100.00
2023-10-26T21:36:01.228Z,98.98
2023-10-26T21:38:27.839Z,100.00
2023-10-26T21:40:54.422Z,98.54
2023-10-26T21:43:21.024Z,100.00
2023-10-26T21:45:47.676Z,100.00
2023-10-26T21:48:14.702Z,98.93
2023-10-26T21:50:41.929Z,98.73
2023-10-26T21:53:08.657Z,98.03
2023-10-26T21:55:38.344Z,98.38
2023-10-26T21:58:05.154Z,98.25
2023-10-26T22:00:32.366Z,100.00
2023-10-26T22:02:59.243Z,100.00
2023-10-26T22:05:27.153Z,98.81
2023-10-26T22:07:54.092Z,100.00
2023-10-26T22:10:21.647Z,99.70
2023-10-26T22:12:48.815Z,100.00
2023-10-26T22:15:15.556Z,100.00
2023-10-26T22:17:43.017Z,100.00
2023-10-26T22:20:09.969Z,100.00
2023-10-26T22:22:37.835Z,100.00
2023-10-26T22:25:04.876Z,99.82
2023-10-26T22:27:32.172Z,99.91
2023-10-26T22:29:59.275Z,100.00
2023-10-26T22:32:25.796Z,100.00
2023-10-26T22:34:52.494Z,100.00
2023-10-26T22:37:20.035Z,99.68
2023-10-26T22:39:48.309Z,98.87
2023-10-26T22:42:15.863Z,99.26
2023-10-26T22:44:43.067Z,99.32
2023-10-26T22:47:09.627Z,100.00
2023-10-26T22:49:36.427Z,99.73
2023-10-26T22:52:03.388Z,99.29
2023-10-26T22:54:30.604Z,100.00
2023-10-26T22:56:57.069Z,100.00
2023-10-26T22:59:23.545Z,100.00
2023-10-26T23:01:51.129Z,99.66
2023-10-26T23:04:18.985Z,99.27
2023-10-26T23:06:45.714Z,99.70
2023-10-26T23:09:14.438Z,100.00
2023-10-26T23:11:41.104Z,99.86
2023-10-26T23:14:07.676Z,99.63
2023-10-26T23:16:36.113Z,99.32
2023-10-26T23:19:03.407Z,98.87
2023-10-26T23:21:30.517Z,98.72
2023-10-26T23:23:57.860Z,98.86
2023-10-26T23:26:24.329Z,98.42
2023-10-26T23:28:50.803Z,98.96
2023-10-26T23:31:17.285Z,99.20
2023-10-26T23:33:43.784Z,98.15
2023-10-26T23:36:10.512Z,97.73
2023-10-26T23:38:37.149Z,97.33
2023-10-26T23:41:03.816Z,97.50
2023-10-26T23:43:30.288Z,98.59
2023-10-26T23:45:58.826Z,99.73
2023-10-26T23:48:25.919Z,99.96
2023-10-26T23:50:52.746Z,99.58
2023-10-26T23:53:20.252Z,98.71
2023-10-26T23:55:48.009Z,98.90
2023-10-26T23:58:14.651Z,99.29
